Main page
METAR-TAF:

METAR-TAF

Airports :

Auburn/Lewiston Municipal Airport

Auburn / Lewiston, Maine, United States

latitude: 44-03N, longitude: 070-17W, elevation: 289 ft

Current weather observation

The report was made 1 hour and 5 minutes ago, at 00:56 UTC
Wind 14 mph from the South
Temperature 28°F
Humidity 50%
Pressure 30.31 in. Hg
Visibility: 10 miles
Clear sky

METAR: KLEW 090056Z AUTO 19012KT 10SM CLR M02/M11 A3031 RMK AO2 SLP277 T10171111 FZRANO

Time: 21:01 (02:01 UTC)


TAF: missing

Weather observations and forecasts of more than 4000 airports (METAR and TAF reports).

The available stations are represented by yellow and red dots on the map.

Hover mouse over dot to see the name of the station.

Then click to see weather observations and forecasts.

To change the map : click on the green buttons with a black cross to zoom in, on the green button with a dash to zoom out, or on the green arrows for adjacent maps.


METAR-TAF: